createdAt,value
2023-01-05T00:04:14.886Z,8.60
2023-01-05T00:06:48.179Z,8.20
2023-01-05T00:09:20.408Z,8.30
2023-01-05T00:20:39.062Z,8.70
2023-01-05T00:23:07.630Z,8.20
2023-01-05T00:25:39.072Z,9.70
2023-01-05T00:28:06.663Z,9.70
2023-01-05T00:30:41.334Z,8.20
2023-01-05T00:33:10.697Z,8.80
2023-01-05T00:35:38.972Z,6.10
2023-01-05T00:38:07.637Z,7.50
2023-01-05T00:40:35.879Z,10.60
2023-01-05T00:43:02.927Z,6.80
2023-01-05T00:45:34.868Z,8.20
2023-01-05T00:48:07.251Z,9.60
2023-01-05T00:50:34.504Z,8.10
2023-01-05T00:53:01.873Z,9.10
2023-01-05T00:55:29.118Z,9.20
2023-01-05T01:05:21.943Z,8.60
2023-01-05T01:07:53.372Z,8.10
2023-01-05T01:10:20.488Z,6.30
2023-01-05T01:12:47.537Z,7.50
2023-01-05T01:15:22.037Z,8.30
2023-01-05T01:17:49.412Z,8.10
2023-01-05T01:22:44.569Z,9.30
2023-01-05T01:27:46.901Z,8.10
2023-01-05T01:30:14.176Z,8.10
2023-01-05T01:32:41.254Z,8.10
2023-01-05T01:37:36.640Z,8.60
2023-01-05T01:40:04.267Z,8.20
2023-01-05T01:42:32.102Z,8.10
2023-01-05T01:45:02.356Z,8.20
2023-01-05T01:47:37.720Z,8.20
2023-01-05T01:50:18.701Z,8.20
2023-01-05T01:52:48.051Z,9.80
2023-01-05T01:55:15.596Z,8.10
2023-01-05T01:57:45.126Z,8.10
2023-01-05T02:00:14.654Z,7.90
2023-01-05T02:02:48.315Z,8.00
2023-01-05T02:05:37.248Z,8.00
2023-01-05T02:08:42.387Z,7.90
2023-01-05T02:11:38.433Z,8.20
2023-01-05T02:14:52.471Z,7.90
2023-01-05T02:17:52.624Z,7.90
2023-01-05T02:20:44.371Z,8.00
2023-01-05T02:23:36.107Z,7.90
2023-01-05T02:26:27.917Z,7.90
2023-01-05T02:29:38.169Z,7.80
2023-01-05T02:32:10.991Z,8.00
2023-01-05T02:34:57.295Z,8.00
2023-01-05T02:37:49.173Z,7.20
2023-01-05T02:40:27.658Z,8.90
2023-01-05T02:42:56.468Z,8.30
2023-01-05T02:45:24.631Z,9.00
2023-01-05T02:47:56.595Z,7.90
2023-01-05T02:50:31.118Z,6.50
2023-01-05T02:53:07.723Z,8.00
2023-01-05T02:56:07.639Z,7.90
2023-01-05T02:58:54.181Z,8.30
2023-01-05T03:01:28.236Z,7.80
2023-01-05T03:04:04.977Z,8.00
2023-01-05T03:06:46.849Z,6.60
2023-01-05T03:09:20.019Z,7.90
2023-01-05T03:12:17.050Z,8.90
2023-01-05T03:15:06.623Z,8.00
2023-01-05T03:17:46.759Z,8.00
2023-01-05T03:20:19.024Z,8.00
2023-01-05T03:23:07.044Z,8.00
2023-01-05T03:25:59.345Z,9.70
2023-01-05T03:29:08.947Z,8.10
2023-01-05T03:32:09.527Z,8.40
2023-01-05T03:35:28.750Z,9.30
2023-01-05T03:38:33.162Z,8.00
2023-01-05T03:41:19.312Z,8.00
2023-01-05T03:44:00.404Z,8.90
2023-01-05T03:46:45.631Z,8.00
2023-01-05T03:49:34.105Z,8.00
2023-01-05T03:52:07.251Z,8.00
2023-01-05T03:57:07.692Z,8.50
2023-01-05T03:59:41.330Z,8.00
2023-01-05T04:02:12.707Z,8.70
2023-01-05T04:04:41.119Z,8.00
2023-01-05T04:07:30.473Z,8.10
2023-01-05T04:12:54.032Z,8.00
2023-01-05T04:20:22.983Z,8.10
2023-01-05T04:22:53.921Z,8.70
2023-01-05T04:25:27.722Z,8.60
2023-01-05T04:27:57.011Z,8.10
2023-01-05T04:30:29.140Z,8.00
2023-01-05T04:42:55.585Z,8.00
2023-01-05T04:45:23.690Z,8.20
2023-01-05T04:47:54.722Z,8.00
2023-01-05T04:50:48.495Z,8.00
2023-01-05T04:53:18.431Z,9.80
2023-01-05T04:55:46.148Z,5.80
2023-01-05T04:58:13.270Z,8.10
2023-01-05T05:00:41.597Z,7.90
2023-01-05T05:03:13.696Z,8.40
2023-01-05T05:05:41.032Z,8.00
2023-01-05T05:08:13.564Z,8.00
2023-01-05T05:10:40.938Z,8.50
2023-01-05T05:13:08.834Z,8.80
2023-01-05T05:15:39.140Z,7.90
2023-01-05T05:18:09.724Z,8.00
2023-01-05T05:20:42.573Z,8.70
2023-01-05T05:23:13.556Z,8.40
2023-01-05T05:28:08.329Z,8.00
2023-01-05T05:33:03.767Z,8.00
2023-01-05T05:35:30.890Z,8.20
2023-01-05T05:37:58.118Z,7.00
2023-01-05T05:40:26.370Z,6.20
2023-01-05T05:42:54.812Z,9.00
2023-01-05T05:45:21.821Z,7.10
2023-01-05T05:47:50.712Z,6.00
2023-01-05T05:50:17.925Z,8.00
2023-01-05T05:52:47.146Z,8.80
2023-01-05T05:55:14.195Z,8.10
2023-01-05T05:57:42.315Z,8.20
2023-01-05T06:00:14.995Z,7.40
2023-01-05T06:02:45.634Z,8.80
2023-01-05T06:05:12.873Z,9.20
2023-01-05T06:12:45.508Z,8.00
2023-01-05T06:20:13.356Z,8.10
2023-01-05T06:22:40.992Z,7.90
2023-01-05T06:27:36.176Z,8.00
2023-01-05T06:30:06.459Z,8.00
2023-01-05T06:40:02.763Z,8.20
2023-01-05T06:42:29.890Z,6.30
2023-01-05T06:44:57.080Z,8.30
2023-01-05T06:47:24.389Z,8.40
2023-01-05T06:57:15.590Z,8.10
2023-01-05T06:59:49.144Z,7.50
2023-01-05T07:02:20.756Z,7.80
2023-01-05T07:07:21.012Z,7.50
2023-01-05T07:09:59.573Z,7.40
2023-01-05T07:12:30.169Z,8.30
2023-01-05T07:17:33.286Z,6.90
2023-01-05T07:25:23.314Z,7.10
2023-01-05T07:37:45.292Z,7.00
2023-01-05T07:40:12.930Z,4.40
2023-01-05T07:42:42.879Z,6.80
2023-01-05T07:45:18.409Z,6.60
2023-01-05T07:50:14.969Z,5.10
2023-01-05T07:52:42.478Z,6.80
2023-01-05T07:55:12.389Z,6.50
2023-01-05T07:57:44.850Z,7.30
2023-01-05T08:02:44.652Z,6.30
2023-01-05T08:05:12.035Z,7.30
2023-01-05T08:21:00.951Z,5.80
2023-01-05T08:23:32.817Z,5.40
2023-01-05T08:26:05.466Z,5.40
2023-01-05T08:28:35.816Z,6.80
2023-01-05T08:31:05.718Z,5.50
2023-01-05T08:33:35.410Z,5.50
2023-01-05T08:36:09.081Z,5.40
2023-01-05T08:38:49.229Z,5.40
2023-01-05T08:41:51.492Z,5.40
2023-01-05T08:47:07.538Z,5.30
2023-01-05T08:49:51.444Z,5.00
2023-01-05T08:54:53.608Z,4.90
2023-01-05T09:04:56.780Z,5.50
2023-01-05T09:07:24.585Z,6.10
2023-01-05T09:09:51.771Z,5.90
2023-01-05T09:15:00.672Z,6.70
2023-01-05T09:19:56.825Z,6.80
2023-01-05T09:22:25.093Z,6.10
2023-01-05T09:24:52.082Z,5.00
2023-01-05T09:27:20.154Z,6.30
2023-01-05T09:29:47.506Z,6.00
2023-01-05T09:32:15.763Z,5.20
2023-01-05T09:37:10.655Z,6.00
2023-01-05T09:39:38.047Z,6.60
2023-01-05T09:42:10.316Z,5.80
2023-01-05T09:44:58.367Z,6.50
2023-01-05T09:47:35.550Z,4.10
2023-01-05T09:50:05.329Z,5.80
2023-01-05T09:52:38.032Z,6.30
2023-01-05T09:55:22.533Z,7.20
2023-01-05T09:57:59.673Z,6.50
2023-01-05T10:00:28.433Z,6.60
2023-01-05T10:03:03.802Z,6.90
2023-01-05T10:05:38.668Z,7.70
2023-01-05T10:08:35.942Z,7.80
2023-01-05T10:12:02.210Z,6.90
2023-01-05T10:14:46.653Z,6.10
2023-01-05T10:20:19.399Z,5.90
2023-01-05T10:23:04.650Z,6.60
2023-01-05T10:25:46.414Z,6.60
2023-01-05T10:28:39.322Z,6.30
2023-01-05T10:31:19.510Z,7.50
2023-01-05T10:34:01.639Z,5.20
2023-01-05T10:37:09.266Z,7.00
2023-01-05T10:40:15.296Z,6.30
2023-01-05T10:43:37.636Z,6.20
2023-01-05T10:46:34.971Z,6.10
2023-01-05T10:49:03.969Z,6.10
2023-01-05T10:51:37.155Z,6.20
2023-01-05T10:54:07.794Z,6.20
2023-01-05T10:56:34.894Z,7.90
2023-01-05T10:59:15.876Z,5.60
2023-01-05T11:01:49.648Z,7.40
2023-01-05T11:04:34.271Z,6.10
2023-01-05T11:07:05.679Z,5.40
2023-01-05T11:09:33.686Z,6.20
2023-01-05T11:12:03.029Z,5.30
2023-01-05T11:14:36.759Z,6.10
2023-01-05T11:17:07.563Z,6.20
2023-01-05T11:19:41.658Z,6.30
2023-01-05T11:22:38.187Z,6.80
2023-01-05T11:25:28.941Z,6.60
2023-01-05T11:28:09.983Z,7.00
2023-01-05T11:31:05.023Z,6.50
2023-01-05T11:33:36.724Z,8.20
2023-01-05T11:36:05.007Z,7.30
2023-01-05T11:38:32.528Z,8.30
2023-01-05T11:41:01.249Z,8.50
2023-01-05T11:43:32.104Z,9.90
2023-01-05T11:46:02.488Z,8.70
2023-01-05T11:48:33.429Z,9.10
2023-01-05T11:51:04.278Z,8.70
2023-01-05T11:53:34.009Z,8.60
2023-01-05T11:56:01.317Z,10.30
2023-01-05T11:58:56.861Z,7.90
2023-01-05T12:01:42.561Z,9.40
2023-01-05T12:04:28.323Z,8.30
2023-01-05T12:07:20.163Z,8.40
2023-01-05T12:10:11.150Z,8.30
2023-01-05T12:12:44.149Z,8.80
2023-01-05T12:15:33.480Z,8.20
2023-01-05T12:18:03.607Z,4.70
2023-01-05T12:20:53.904Z,8.00
2023-01-05T12:23:35.030Z,8.10
2023-01-05T12:26:29.329Z,9.60
2023-01-05T12:36:41.305Z,7.40
2023-01-05T12:40:04.703Z,7.10
2023-01-05T12:42:40.713Z,7.00
2023-01-05T12:45:32.202Z,6.80
2023-01-05T12:48:27.511Z,5.40
2023-01-05T12:51:42.761Z,6.60
2023-01-05T12:54:39.941Z,6.60
2023-01-05T12:57:23.493Z,6.80
2023-01-05T13:00:15.780Z,7.70
2023-01-05T13:02:58.550Z,5.80
2023-01-05T13:05:34.784Z,6.80
2023-01-05T13:08:25.013Z,5.40
2023-01-05T13:11:13.453Z,6.60
2023-01-05T13:13:52.240Z,6.50
2023-01-05T13:16:26.177Z,6.40
2023-01-05T13:19:20.840Z,6.50
2023-01-05T13:24:27.941Z,6.40
2023-01-05T13:26:56.899Z,7.70
2023-01-05T13:29:33.327Z,6.30
2023-01-05T13:32:25.743Z,6.10
2023-01-05T13:35:20.698Z,6.20
2023-01-05T13:38:13.416Z,5.80
2023-01-05T13:41:05.435Z,6.90
2023-01-05T13:44:07.491Z,5.90
2023-01-05T13:46:56.837Z,6.90
2023-01-05T13:50:03.261Z,5.70
2023-01-05T13:55:03.162Z,6.30
2023-01-05T13:57:38.685Z,7.50
2023-01-05T14:00:19.605Z,5.60
2023-01-05T14:03:07.740Z,5.80
2023-01-05T14:06:12.685Z,5.70
2023-01-05T14:08:59.985Z,5.50
2023-01-05T14:14:26.824Z,5.70
2023-01-05T14:16:56.323Z,6.20
2023-01-05T14:19:53.409Z,5.70
2023-01-05T14:22:42.514Z,6.10
2023-01-05T14:27:36.077Z,5.90
2023-01-05T14:29:59.889Z,6.50
2023-01-05T14:32:41.743Z,5.80
2023-01-05T14:35:19.443Z,8.10
2023-01-05T14:38:01.362Z,5.60
2023-01-05T14:43:46.268Z,5.30
2023-01-05T14:46:15.730Z,5.30
2023-01-05T14:49:05.363Z,5.20
2023-01-05T14:51:39.443Z,5.20
2023-01-05T14:54:07.223Z,4.90
2023-01-05T14:56:37.368Z,5.00
2023-01-05T14:59:12.790Z,6.50
2023-01-05T15:02:00.111Z,4.80
2023-01-05T15:04:37.290Z,4.70
2023-01-05T15:07:41.609Z,4.80
2023-01-05T15:10:37.152Z,4.70
2023-01-05T15:13:29.915Z,4.50
2023-01-05T15:16:06.010Z,4.30
2023-01-05T15:19:15.710Z,4.30
2023-01-05T15:22:12.929Z,4.20
2023-01-05T15:25:29.890Z,3.10
2023-01-05T15:28:17.738Z,4.10
2023-01-05T15:31:00.808Z,4.00
2023-01-05T15:36:03.618Z,4.10
2023-01-05T15:38:31.755Z,3.80
2023-01-05T15:41:08.248Z,4.30
2023-01-05T15:43:40.283Z,4.00
2023-01-05T15:48:45.670Z,3.90
2023-01-05T15:51:29.256Z,4.00
2023-01-05T15:54:00.102Z,3.90
2023-01-05T15:56:39.607Z,3.90
2023-01-05T15:59:31.236Z,3.90
2023-01-05T16:01:59.290Z,3.90
2023-01-05T16:04:30.651Z,3.90
2023-01-05T16:07:14.663Z,4.00
2023-01-05T16:09:47.177Z,3.90
2023-01-05T16:12:23.514Z,4.10
2023-01-05T16:15:03.913Z,3.50
2023-01-05T16:17:38.366Z,4.10
2023-01-05T16:20:27.693Z,4.20
2023-01-05T16:23:12.432Z,4.00
2023-01-05T16:25:43.679Z,4.20
2023-01-05T16:28:24.882Z,4.20
2023-01-05T16:30:59.230Z,4.30
2023-01-05T16:33:38.494Z,4.10
2023-01-05T16:36:16.412Z,4.10
2023-01-05T16:41:21.435Z,4.00
2023-01-05T16:44:00.508Z,4.00
2023-01-05T16:46:36.531Z,4.00
2023-01-05T16:49:27.163Z,6.00
2023-01-05T16:51:57.095Z,3.90
2023-01-05T16:54:39.200Z,3.00
2023-01-05T16:57:32.209Z,3.90
2023-01-05T17:00:26.782Z,3.90
2023-01-05T17:02:55.957Z,4.00
2023-01-05T17:05:29.339Z,2.50
2023-01-05T17:10:27.394Z,3.70
2023-01-05T17:13:17.068Z,3.70
2023-01-05T17:15:46.088Z,3.70
2023-01-05T17:18:24.353Z,2.80
2023-01-05T17:20:53.497Z,2.90
2023-01-05T17:23:28.170Z,3.60
2023-01-05T17:26:01.759Z,3.50
2023-01-05T17:28:32.450Z,2.90
2023-01-05T17:33:31.593Z,3.30
2023-01-05T17:38:32.768Z,3.10
2023-01-05T17:41:09.478Z,3.00
2023-01-05T17:46:21.077Z,3.10
2023-01-05T17:48:49.491Z,3.10
2023-01-05T18:04:54.994Z,3.50
2023-01-05T18:27:10.269Z,3.90
2023-01-05T18:29:38.676Z,4.30
2023-01-05T18:32:07.120Z,3.80
2023-01-05T18:47:10.128Z,4.90
2023-01-05T18:49:41.432Z,4.00
2023-01-05T18:54:40.388Z,4.00
2023-01-05T18:57:08.751Z,3.50
2023-01-05T19:04:33.604Z,3.50
2023-01-05T19:07:02.685Z,3.10
2023-01-05T19:12:06.688Z,4.10
2023-01-05T19:14:33.589Z,4.10
2023-01-05T19:17:01.002Z,3.40
2023-01-05T19:21:58.129Z,3.60
2023-01-05T19:24:26.837Z,5.20
2023-01-05T19:29:22.093Z,4.00
2023-01-05T19:34:19.729Z,4.20
2023-01-05T19:36:47.603Z,4.30
2023-01-05T19:39:17.693Z,4.30
2023-01-05T19:41:47.059Z,4.30
2023-01-05T19:44:21.344Z,4.30
2023-01-05T19:46:50.227Z,4.20
2023-01-05T19:49:21.378Z,4.30
2023-01-05T19:56:45.384Z,4.30
2023-01-05T19:59:21.875Z,4.10
2023-01-05T20:06:48.769Z,4.20
2023-01-05T20:09:19.152Z,4.20
2023-01-05T20:11:53.001Z,4.10
2023-01-05T20:14:25.117Z,4.00
2023-01-05T20:17:07.305Z,2.70
2023-01-05T20:19:36.801Z,4.20
2023-01-05T20:22:09.805Z,4.10
2023-01-05T20:24:40.566Z,4.60
2023-01-05T20:27:13.656Z,4.20
2023-01-05T20:29:44.466Z,4.70
2023-01-05T20:32:22.749Z,4.30
2023-01-05T20:34:53.125Z,4.70
2023-01-05T20:37:20.553Z,4.00
2023-01-05T20:39:47.718Z,3.50
2023-01-05T20:42:21.090Z,4.00
2023-01-05T20:44:51.436Z,3.90
2023-01-05T20:49:56.276Z,4.30
2023-01-05T20:52:24.156Z,3.80
2023-01-05T20:57:23.644Z,3.70
2023-01-05T20:59:51.473Z,5.00
2023-01-05T21:02:24.025Z,3.70
2023-01-05T21:04:53.085Z,3.50
2023-01-05T21:07:20.490Z,3.50
2023-01-05T21:12:18.091Z,5.20
2023-01-05T21:14:47.992Z,3.10
2023-01-05T21:17:15.350Z,3.30
2023-01-05T21:19:44.171Z,3.40
2023-01-05T21:27:06.091Z,3.40
2023-01-05T21:34:34.033Z,3.50
2023-01-05T21:39:30.244Z,4.00
2023-01-05T21:42:18.909Z,4.30
2023-01-05T21:47:15.698Z,4.30
2023-01-05T21:49:43.088Z,4.20
2023-01-05T22:00:34.143Z,4.00
2023-01-05T22:03:01.315Z,4.00
2023-01-05T22:05:29.253Z,1.90
2023-01-05T22:33:05.807Z,4.50
2023-01-05T22:35:32.822Z,4.50
2023-01-05T22:38:00.462Z,4.40
2023-01-05T22:40:27.566Z,5.10
2023-01-05T22:42:58.218Z,4.30
2023-01-05T22:48:07.139Z,4.40
2023-01-05T22:55:35.776Z,4.30
2023-01-05T23:00:44.554Z,4.40
2023-01-05T23:03:22.720Z,4.50
2023-01-05T23:06:08.301Z,5.30
2023-01-05T23:08:40.038Z,4.50
2023-01-05T23:11:22.933Z,5.40
2023-01-05T23:13:51.576Z,4.50
2023-01-05T23:16:22.021Z,4.30
2023-01-05T23:19:00.328Z,4.60
2023-01-05T23:21:29.939Z,4.60
2023-01-05T23:23:58.784Z,4.90
2023-01-05T23:26:27.289Z,2.50
2023-01-05T23:28:57.771Z,4.60
2023-01-05T23:31:29.430Z,4.60
2023-01-05T23:34:00.144Z,4.70
2023-01-05T23:41:31.284Z,4.90
2023-01-05T23:49:00.948Z,4.70
2023-01-05T23:51:31.666Z,4.80
2023-01-05T23:54:07.390Z,4.70
2023-01-05T23:56:34.770Z,4.80
2023-01-05T23:59:08.878Z,4.80
